^^
Datos históricos de la estación: Murcia-Puente Tocinos
Diario Informe para Junio 18, 2019 Unidades:  Ambas    Inglés   Métrico
Diario Semanal Mensual Anual Configurable
  Máximo: Mínimo: Media:
Temperatura: 87.1 °F /  30.6 °C 63.9 °F /  17.7 °C 74.8 °F /  23.8 °C
Punto de rocio: 63.3 °F /  17.4 °C 51.4 °F /  10.8 °C 57 °F /  13.9 °C
Humedad: 84% 32% 57%
Velocidad viento: 12.3mph /  19.8km/h - 5.6mph /  9km/h
Racha viento: 20.8mph /  33.5km/h - -
Viento- - ESE
Presión: 30 in /  1014.8 hPa 29.8 in /  1010.6 hPa -
Precipitación: 0 in /  0.0 mm    
Historical Graphs
 
 
Tabla de datos para Junio 18, 2019
Hora Temperatura Punto de rocio Presión Viento Velocidad viento Racha viento Humedad Intensidad lluvia(por hora) Nubes
00:04 68.7 °F /  20.4 °C 60.4 °F /  15.8 °C 30in /  1014.8hPa NNE 6.4mph /  10.3km/h 9.2mph /  14.8km/h 75% 0in /  0.0mm CLR
00:09 68.7 °F /  20.4 °C 60.4 °F /  15.8 °C 30in /  1014.8hPa NE 6.2mph /  10.0km/h 6.9mph /  11.1km/h 75% 0in /  0.0mm CLR
00:14 68.5 °F /  20.3 °C 60.6 °F /  15.9 °C 30in /  1014.8hPa NNE 6.2mph /  10.0km/h 6.9mph /  11.1km/h 76% 0in /  0.0mm CLR
00:19 68.5 °F /  20.3 °C 60.6 °F /  15.9 °C 30in /  1014.7hPa NE 5.4mph /  8.7km/h 9.2mph /  14.8km/h 76% 0in /  0.0mm CLR
00:24 68.4 °F /  20.2 °C 60.4 °F /  15.8 °C 30in /  1014.7hPa ENE 5.4mph /  8.7km/h 8.1mph /  13.0km/h 76% 0in /  0.0mm CLR
00:29 68.4 °F /  20.2 °C 60.4 °F /  15.8 °C 30in /  1014.7hPa NE 6.4mph /  10.3km/h 6.9mph /  11.1km/h 76% 0in /  0.0mm CLR
00:34 68.2 °F /  20.1 °C 60.3 °F /  15.7 °C 30in /  1014.8hPa NNE 6.4mph /  10.3km/h 8.1mph /  13.0km/h 76% 0in /  0.0mm CLR
00:39 68.2 °F /  20.1 °C 60.6 °F /  15.9 °C 30in /  1014.8hPa ENE 5.2mph /  8.4km/h 9.2mph /  14.8km/h 77% 0in /  0.0mm CLR
00:44 68 °F /  20.0 °C 61.2 °F /  16.2 °C 30in /  1014.8hPa NE 5.2mph /  8.4km/h 5.9mph /  9.5km/h 79% 0in /  0.0mm CLR
00:49 67.8 °F /  19.9 °C 61.2 °F /  16.2 °C 30in /  1014.6hPa NNE 5.2mph /  8.4km/h 8.1mph /  13.0km/h 79% 0in /  0.0mm CLR
00:54 67.8 °F /  19.9 °C 61.3 °F /  16.3 °C 30in /  1014.6hPa East 5.2mph /  8.4km/h 6.2mph /  10.0km/h 80% 0in /  0.0mm CLR
00:59 67.5 °F /  19.7 °C 61.2 °F /  16.2 °C 30in /  1014.6hPa NE 4.7mph /  7.6km/h 8.5mph /  13.7km/h 80% 0in /  0.0mm CLR
01:04 67.5 °F /  19.7 °C 61.3 °F /  16.3 °C 30in /  1014.4hPa NE 4.7mph /  7.6km/h 8.1mph /  13.0km/h 81% 0in /  0.0mm CLR
01:09 67.3 °F /  19.6 °C 61.2 °F /  16.2 °C 30in /  1014.4hPa ENE 5.4mph /  8.7km/h 5.2mph /  8.4km/h 81% 0in /  0.0mm CLR
01:14 67.3 °F /  19.6 °C 61.5 °F /  16.4 °C 30in /  1014.4hPa NE 5.4mph /  8.7km/h 6.9mph /  11.1km/h 82% 0in /  0.0mm CLR
01:19 66.9 °F /  19.4 °C 61.2 °F /  16.2 °C 30in /  1014.4hPa NE 4.7mph /  7.6km/h 8.1mph /  13.0km/h 82% 0in /  0.0mm CLR
01:24 66.9 °F /  19.4 °C 61.2 °F /  16.2 °C 30in /  1014.4hPa NE 4.7mph /  7.6km/h 5.8mph /  9.3km/h 82% 0in /  0.0mm CLR
01:29 66.9 °F /  19.4 °C 61.5 °F /  16.4 °C 30in /  1014.4hPa NE 5.2mph /  8.4km/h 5.8mph /  9.3km/h 83% 0in /  0.0mm CLR
01:34 66.7 °F /  19.3 °C 61.3 °F /  16.3 °C 30in /  1014.4hPa ENE 5.2mph /  8.4km/h 5.8mph /  9.3km/h 83% 0in /  0.0mm CLR
01:39 66.7 °F /  19.3 °C 61.2 °F /  16.2 °C 30in /  1014.4hPa NNE 3.6mph /  5.8km/h 2.9mph /  4.7km/h 82% 0in /  0.0mm CLR
01:44 66.7 °F /  19.3 °C 61.2 °F /  16.2 °C 30in /  1014.4hPa NE 3.6mph /  5.8km/h 5.8mph /  9.3km/h 82% 0in /  0.0mm CLR
01:49 66.7 °F /  19.3 °C 61.3 °F /  16.3 °C 30in /  1014.3hPa NE 2.4mph /  3.9km/h 4.7mph /  7.6km/h 83% 0in /  0.0mm CLR
01:54 66.6 °F /  19.2 °C 61 °F /  16.1 °C 30in /  1014.3hPa NE 2.4mph /  3.9km/h   82% 0in /  0.0mm CLR
01:59 66.6 °F /  19.2 °C 61.2 °F /  16.2 °C 30in /  1014.3hPa NE 2mph /  3.2km/h 3.6mph /  5.8km/h 83% 0in /  0.0mm CLR
02:04 66.6 °F /  19.2 °C 61.2 °F /  16.2 °C 30in /  1014.2hPa NE 2mph /  3.2km/h 4.7mph /  7.6km/h 83% 0in /  0.0mm CLR
02:09 66.4 °F /  19.1 °C 61.2 °F /  16.2 °C 30in /  1014.2hPa NE 3.1mph /  5.0km/h 5.2mph /  8.4km/h 83% 0in /  0.0mm CLR
02:14 66.2 °F /  19.0 °C 60.4 °F /  15.8 °C 30in /  1014.2hPa NE 3.1mph /  5.0km/h 4.6mph /  7.4km/h 82% 0in /  0.0mm CLR
02:19 66 °F /  18.9 °C 60.1 °F /  15.6 °C 30in /  1014.2hPa NE 2.4mph /  3.9km/h 3.5mph /  5.6km/h 81% 0in /  0.0mm CLR
02:24 66 °F /  18.9 °C 59.7 °F /  15.4 °C 30in /  1014.2hPa NE 2.4mph /  3.9km/h 4.6mph /  7.4km/h 80% 0in /  0.0mm CLR
02:29 66 °F /  18.9 °C 60.4 °F /  15.8 °C 30in /  1014.2hPa NNE 2.4mph /  3.9km/h 2.3mph /  3.7km/h 82% 0in /  0.0mm CLR
02:34 66 °F /  18.9 °C 60.6 °F /  15.9 °C 30in /  1014.2hPa NE 2.4mph /  3.9km/h 4.6mph /  7.4km/h 83% 0in /  0.0mm CLR
02:39 66.2 °F /  19.0 °C 61.2 °F /  16.2 °C 30in /  1014.2hPa NE 2mph /  3.2km/h 2.3mph /  3.7km/h 84% 0in /  0.0mm CLR
02:44 66.4 °F /  19.1 °C 61.3 °F /  16.3 °C 30in /  1014.2hPa NE 2mph /  3.2km/h 2.4mph /  3.9km/h 84% 0in /  0.0mm CLR
02:49 66.4 °F /  19.1 °C 61.3 °F /  16.3 °C 30in /  1014.2hPa Calm     84% 0in /  0.0mm CLR
02:54 66.4 °F /  19.1 °C 61.3 °F /  16.3 °C 30in /  1014.2hPa Calm   2.3mph /  3.7km/h 84% 0in /  0.0mm CLR
02:59 66.4 °F /  19.1 °C 60.6 °F /  15.9 °C 30in /  1014.2hPa Calm   1.2mph /  1.9km/h 82% 0in /  0.0mm CLR
03:04 66 °F /  18.9 °C 59.7 °F /  15.4 °C 29.9in /  1014.0hPa Calm     80% 0in /  0.0mm CLR
03:09 66 °F /  18.9 °C 60.1 °F /  15.6 °C 29.9in /  1014.0hPa Calm     81% 0in /  0.0mm CLR
03:14 66.2 °F /  19.0 °C 60.4 °F /  15.8 °C 29.9in /  1014.0hPa Calm     82% 0in /  0.0mm CLR
03:19 66.4 °F /  19.1 °C 60.6 °F /  15.9 °C 29.9in /  1013.7hPa Calm     82% 0in /  0.0mm CLR
03:24 66.4 °F /  19.1 °C 60.6 °F /  15.9 °C 29.9in /  1013.7hPa Calm     82% 0in /  0.0mm CLR
03:29 66.6 °F /  19.2 °C 61 °F /  16.1 °C 29.9in /  1013.7hPa Calm     82% 0in /  0.0mm CLR
03:34 66.6 °F /  19.2 °C 61 °F /  16.1 °C 29.9in /  1013.7hPa Calm     82% 0in /  0.0mm CLR
03:39 66.6 °F /  19.2 °C 61 °F /  16.1 °C 29.9in /  1013.7hPa Calm     82% 0in /  0.0mm CLR
03:44 66.6 °F /  19.2 °C 61 °F /  16.1 °C 29.9in /  1013.7hPa Calm     82% 0in /  0.0mm CLR
03:49 66.4 °F /  19.1 °C 60.6 °F /  15.9 °C 29.9in /  1013.5hPa Calm     82% 0in /  0.0mm CLR
03:54 66.4 °F /  19.1 °C 60.6 °F /  15.9 °C 29.9in /  1013.5hPa Calm     82% 0in /  0.0mm CLR
03:59 66.2 °F /  19.0 °C 60.4 °F /  15.8 °C 29.9in /  1013.5hPa Calm     82% 0in /  0.0mm CLR
04:04 65.8 °F /  18.8 °C 58.8 °F /  14.9 °C 29.9in /  1013.4hPa Calm   3.5mph /  5.6km/h 78% 0in /  0.0mm CLR
04:09 65.5 °F /  18.6 °C 58.1 °F /  14.5 °C 29.9in /  1013.4hPa ENE 1.8mph /  2.9km/h 3.5mph /  5.6km/h 77% 0in /  0.0mm CLR
04:14 65.3 °F /  18.5 °C 57.6 °F /  14.2 °C 29.9in /  1013.4hPa ENE 1.8mph /  2.9km/h   76% 0in /  0.0mm CLR
04:19 65.1 °F /  18.4 °C 57 °F /  13.9 °C 29.9in /  1013.3hPa ENE 1.4mph /  2.3km/h 1.2mph /  1.9km/h 75% 0in /  0.0mm CLR
04:24 65.3 °F /  18.5 °C 56.8 °F /  13.8 °C 29.9in /  1013.3hPa ENE 1.4mph /  2.3km/h   74% 0in /  0.0mm CLR
04:29 65.3 °F /  18.5 °C 56.5 °F /  13.6 °C 29.9in /  1013.3hPa Calm     73% 0in /  0.0mm CLR
04:34 65.3 °F /  18.5 °C 55.2 °F /  12.9 °C 29.9in /  1013.2hPa Calm   4.6mph /  7.4km/h 70% 0in /  0.0mm CLR
04:39 65.1 °F /  18.4 °C 55 °F /  12.8 °C 29.9in /  1013.2hPa ESE 2.4mph /  3.9km/h 4.6mph /  7.4km/h 70% 0in /  0.0mm CLR
04:44 65.1 °F /  18.4 °C 54.3 °F /  12.4 °C 29.9in /  1013.2hPa SE 2.4mph /  3.9km/h 3.6mph /  5.8km/h 68% 0in /  0.0mm CLR
04:49 64.9 °F /  18.3 °C 54.1 °F /  12.3 °C 29.9in /  1013.3hPa SE 2.9mph /  4.7km/h 3.5mph /  5.6km/h 68% 0in /  0.0mm CLR
04:54 64.9 °F /  18.3 °C 54.1 °F /  12.3 °C 29.9in /  1013.3hPa SE 2.9mph /  4.7km/h 4.6mph /  7.4km/h 68% 0in /  0.0mm CLR
04:59 65.1 °F /  18.4 °C 54.3 °F /  12.4 °C 29.9in /  1013.3hPa SE 2.9mph /  4.7km/h 3.5mph /  5.6km/h 68% 0in /  0.0mm CLR
05:04 64.9 °F /  18.3 °C 54.1 °F /  12.3 °C 29.9in /  1013.2hPa SSE 2.9mph /  4.7km/h 3.5mph /  5.6km/h 68% 0in /  0.0mm CLR
05:09 64.9 °F /  18.3 °C 54.1 °F /  12.3 °C 29.9in /  1013.2hPa SSE 2.4mph /  3.9km/h 4.6mph /  7.4km/h 68% 0in /  0.0mm CLR
05:14 64.9 °F /  18.3 °C 54.1 °F /  12.3 °C 29.9in /  1013.2hPa SSE 2.4mph /  3.9km/h 2.3mph /  3.7km/h 68% 0in /  0.0mm CLR
05:19 64.9 °F /  18.3 °C 54.1 °F /  12.3 °C 29.9in /  1013.3hPa SSE 1.8mph /  2.9km/h   68% 0in /  0.0mm CLR
05:24 64.9 °F /  18.3 °C 54.1 °F /  12.3 °C 29.9in /  1013.3hPa SSE 1.8mph /  2.9km/h   68% 0in /  0.0mm CLR
05:29 65.1 °F /  18.4 °C 54.3 °F /  12.4 °C 29.9in /  1013.3hPa Calm     68% 0in /  0.0mm CLR
05:34 64.9 °F /  18.3 °C 54.5 °F /  12.5 °C 29.9in /  1013.2hPa Calm     69% 0in /  0.0mm CLR
05:39 64.8 °F /  18.2 °C 54.3 °F /  12.4 °C 29.9in /  1013.2hPa Calm     69% 0in /  0.0mm CLR
05:44 64.8 °F /  18.2 °C 54.7 °F /  12.6 °C 29.9in /  1013.2hPa Calm     70% 0in /  0.0mm CLR
05:49 64.6 °F /  18.1 °C 54.7 °F /  12.6 °C 29.9in /  1013.3hPa Calm   2.3mph /  3.7km/h 70% 0in /  0.0mm CLR
05:54 64.6 °F /  18.1 °C 54.7 °F /  12.6 °C 29.9in /  1013.3hPa Calm     70% 0in /  0.0mm CLR
05:59 64.4 °F /  18.0 °C 54.9 °F /  12.7 °C 29.9in /  1013.3hPa Calm     71% 0in /  0.0mm CLR
06:04 64.2 °F /  17.9 °C 54.7 °F /  12.6 °C 29.9in /  1013.4hPa Calm     71% 0in /  0.0mm CLR
06:09 64.2 °F /  17.9 °C 55 °F /  12.8 °C 29.9in /  1013.4hPa Calm     72% 0in /  0.0mm CLR
06:14 64.2 °F /  17.9 °C 55 °F /  12.8 °C 29.9in /  1013.4hPa Calm     72% 0in /  0.0mm CLR
06:19 64 °F /  17.8 °C 54.9 °F /  12.7 °C 29.9in /  1013.5hPa Calm     72% 0in /  0.0mm CLR
06:24 64 °F /  17.8 °C 55.9 °F /  13.3 °C 29.9in /  1013.5hPa Calm     75% 0in /  0.0mm CLR
06:29 64 °F /  17.8 °C 55.9 °F /  13.3 °C 29.9in /  1013.5hPa Calm     75% 0in /  0.0mm CLR
06:34 63.9 °F /  17.7 °C 54.3 °F /  12.4 °C 29.9in /  1013.5hPa Calm   3.6mph /  5.8km/h 71% 0in /  0.0mm CLR
06:39 63.9 °F /  17.7 °C 54 °F /  12.2 °C 29.9in /  1013.5hPa South 2mph /  3.2km/h 4.6mph /  7.4km/h 70% 0in /  0.0mm CLR
06:44 64 °F /  17.8 °C 54.1 °F /  12.3 °C 29.9in /  1013.5hPa SSW 2mph /  3.2km/h 4.7mph /  7.6km/h 70% 0in /  0.0mm CLR
06:49 64 °F /  17.8 °C 54.1 °F /  12.3 °C 29.9in /  1013.6hPa SSW 3.1mph /  5.0km/h 4.7mph /  7.6km/h 70% 0in /  0.0mm CLR
06:54 64.2 °F /  17.9 °C 54.1 °F /  12.3 °C 29.9in /  1013.6hPa SSE 3.1mph /  5.0km/h 4.6mph /  7.4km/h 70% 0in /  0.0mm CLR
06:59 64.4 °F /  18.0 °C 54.3 °F /  12.4 °C 29.9in /  1013.6hPa SSE 2.9mph /  4.7km/h 4.6mph /  7.4km/h 70% 0in /  0.0mm CLR
07:04 64.2 °F /  17.9 °C 53.8 °F /  12.1 °C 29.9in /  1013.6hPa South 2.9mph /  4.7km/h 4.6mph /  7.4km/h 69% 0in /  0.0mm CLR
07:09 64.4 °F /  18.0 °C 54 °F /  12.2 °C 29.9in /  1013.6hPa South 3.6mph /  5.8km/h 5.8mph /  9.3km/h 69% 0in /  0.0mm CLR
07:14 64.4 °F /  18.0 °C 54 °F /  12.2 °C 29.9in /  1013.6hPa South 3.6mph /  5.8km/h 5.8mph /  9.3km/h 69% 0in /  0.0mm CLR
07:19 64.4 °F /  18.0 °C 54 °F /  12.2 °C 29.9in /  1013.8hPa SW 4mph /  6.4km/h 4.6mph /  7.4km/h 69% 0in /  0.0mm CLR
07:24 64.6 °F /  18.1 °C 54.7 °F /  12.6 °C 29.9in /  1013.8hPa SSW 4mph /  6.4km/h 4.6mph /  7.4km/h 70% 0in /  0.0mm CLR
07:29 64.6 °F /  18.1 °C 54.1 °F /  12.3 °C 29.9in /  1013.8hPa SW 3.6mph /  5.8km/h 5.8mph /  9.3km/h 69% 0in /  0.0mm CLR
07:34 64.6 °F /  18.1 °C 54.1 °F /  12.3 °C 29.9in /  1013.8hPa SW 3.6mph /  5.8km/h 6.9mph /  11.1km/h 69% 0in /  0.0mm CLR
07:39 64.6 °F /  18.1 °C 54.1 °F /  12.3 °C 29.9in /  1013.8hPa SSW 4.3mph /  6.9km/h 5.8mph /  9.3km/h 69% 0in /  0.0mm CLR
07:44 64.8 °F /  18.2 °C 54 °F /  12.2 °C 29.9in /  1013.8hPa South 4.3mph /  6.9km/h 4.6mph /  7.4km/h 68% 0in /  0.0mm CLR
07:49 64.9 °F /  18.3 °C 53.8 °F /  12.1 °C 29.9in /  1013.9hPa SW 4.3mph /  6.9km/h 5.8mph /  9.3km/h 67% 0in /  0.0mm CLR
07:54 65.1 °F /  18.4 °C 53.4 °F /  11.9 °C 29.9in /  1013.9hPa SSE 4.3mph /  6.9km/h 5.8mph /  9.3km/h 66% 0in /  0.0mm CLR
07:59 65.3 °F /  18.5 °C 53.6 °F /  12.0 °C 29.9in /  1013.9hPa South 4mph /  6.4km/h 5.8mph /  9.3km/h 66% 0in /  0.0mm CLR
08:04 65.7 °F /  18.7 °C 53.6 °F /  12.0 °C 29.9in /  1014.1hPa South 4mph /  6.4km/h 5.8mph /  9.3km/h 65% 0in /  0.0mm CLR
08:09 65.8 °F /  18.8 °C 53.2 °F /  11.8 °C 29.9in /  1014.1hPa SSE 4mph /  6.4km/h 5.4mph /  8.7km/h 64% 0in /  0.0mm CLR
08:14 66.2 °F /  19.0 °C 53.8 °F /  12.1 °C 29.9in /  1014.1hPa SSE 4mph /  6.4km/h 5.8mph /  9.3km/h 64% 0in /  0.0mm CLR
08:19 66.4 °F /  19.1 °C 53.1 °F /  11.7 °C 29.9in /  1014.0hPa SSW 4.3mph /  6.9km/h 5.8mph /  9.3km/h 62% 0in /  0.0mm CLR
08:24 66.6 °F /  19.2 °C 53.1 °F /  11.7 °C 29.9in /  1014.0hPa SSW 4.3mph /  6.9km/h 5.8mph /  9.3km/h 62% 0in /  0.0mm CLR
08:29 66.7 °F /  19.3 °C 53.2 °F /  11.8 °C 29.9in /  1014.0hPa SSE 4mph /  6.4km/h 5.8mph /  9.3km/h 62% 0in /  0.0mm CLR
08:34 67.1 °F /  19.5 °C 53.2 °F /  11.8 °C 29.9in /  1014.1hPa SSW 4mph /  6.4km/h 4.6mph /  7.4km/h 61% 0in /  0.0mm CLR
08:39 67.5 °F /  19.7 °C 53.1 °F /  11.7 °C 29.9in /  1014.1hPa SW 2.9mph /  4.7km/h 2.3mph /  3.7km/h 60% 0in /  0.0mm CLR
08:44 68 °F /  20.0 °C 52.7 °F /  11.5 °C 29.9in /  1014.1hPa WSW 2.9mph /  4.7km/h 4mph /  6.4km/h 58% 0in /  0.0mm CLR
08:49 68.4 °F /  20.2 °C 53.1 °F /  11.7 °C 29.9in /  1014.0hPa WSW 2mph /  3.2km/h 3.5mph /  5.6km/h 58% 0in /  0.0mm CLR
08:54 68.5 °F /  20.3 °C 52.2 °F /  11.2 °C 29.9in /  1014.0hPa WNW 2mph /  3.2km/h 4.6mph /  7.4km/h 56% 0in /  0.0mm CLR
08:59 68.7 °F /  20.4 °C 52 °F /  11.1 °C 29.9in /  1014.0hPa West 2mph /  3.2km/h 2.3mph /  3.7km/h 55% 0in /  0.0mm CLR
09:04 69.1 °F /  20.6 °C 52.2 °F /  11.2 °C 29.9in /  1014.1hPa NW 2mph /  3.2km/h 3.5mph /  5.6km/h 55% 0in /  0.0mm CLR
09:09 69.3 °F /  20.7 °C 51.4 °F /  10.8 °C 29.9in /  1014.1hPa NW 2mph /  3.2km/h 3.5mph /  5.6km/h 53% 0in /  0.0mm CLR
09:14 69.8 °F /  21.0 °C 52.3 °F /  11.3 °C 29.9in /  1014.1hPa NW 2mph /  3.2km/h 3.5mph /  5.6km/h 54% 0in /  0.0mm CLR
09:19 70.2 °F /  21.2 °C 51.6 °F /  10.9 °C 29.9in /  1014.1hPa NW 1.8mph /  2.9km/h 3.5mph /  5.6km/h 52% 0in /  0.0mm CLR
09:24 70.5 °F /  21.4 °C 52 °F /  11.1 °C 29.9in /  1014.1hPa WNW 1.8mph /  2.9km/h 2.9mph /  4.7km/h 52% 0in /  0.0mm CLR
09:29 70.9 °F /  21.6 °C 52.3 °F /  11.3 °C 29.9in /  1014.1hPa West 2mph /  3.2km/h 3.5mph /  5.6km/h 52% 0in /  0.0mm CLR
09:34 71.1 °F /  21.7 °C 52 °F /  11.1 °C 29.9in /  1014.0hPa West 2mph /  3.2km/h 3.5mph /  5.6km/h 51% 0in /  0.0mm CLR
09:39 71.2 °F /  21.8 °C 52.2 °F /  11.2 °C 29.9in /  1014.0hPa NW 1.8mph /  2.9km/h 1.4mph /  2.3km/h 51% 0in /  0.0mm CLR
09:44 72.3 °F /  22.4 °C 52.5 °F /  11.4 °C 29.9in /  1014.0hPa ESE 1.8mph /  2.9km/h 3.5mph /  5.6km/h 50% 0in /  0.0mm CLR
09:49 73.2 °F /  22.9 °C 52.3 °F /  11.3 °C 29.9in /  1014.0hPa ESE 1.4mph /  2.3km/h 2.3mph /  3.7km/h 48% 0in /  0.0mm CLR
09:54 73.9 °F /  23.3 °C 52.3 °F /  11.3 °C 29.9in /  1014.0hPa NW 1.4mph /  2.3km/h 3.5mph /  5.6km/h 47% 0in /  0.0mm CLR
09:59 74.5 °F /  23.6 °C 52.9 °F /  11.6 °C 29.9in /  1014.0hPa NE 1.8mph /  2.9km/h 3.5mph /  5.6km/h 47% 0in /  0.0mm CLR
10:04 74.8 °F /  23.8 °C 52.7 °F /  11.5 °C 29.9in /  1014.1hPa East 1.8mph /  2.9km/h 3.5mph /  5.6km/h 46% 0in /  0.0mm CLR
10:09 74.7 °F /  23.7 °C 52.5 °F /  11.4 °C 29.9in /  1014.1hPa NNW 2.4mph /  3.9km/h 4.6mph /  7.4km/h 46% 0in /  0.0mm CLR
10:14 74.5 °F /  23.6 °C 52.9 °F /  11.6 °C 29.9in /  1014.1hPa NNW 2.4mph /  3.9km/h 3.1mph /  5.0km/h 47% 0in /  0.0mm CLR
10:19 74.8 °F /  23.8 °C 52.7 °F /  11.5 °C 29.9in /  1013.8hPa NNE 2mph /  3.2km/h 3.6mph /  5.8km/h 46% 0in /  0.0mm CLR
10:24 75.2 °F /  24.0 °C 52.3 °F /  11.3 °C 29.9in /  1013.8hPa NNE 2mph /  3.2km/h 4.7mph /  7.6km/h 45% 0in /  0.0mm CLR
10:29 75.4 °F /  24.1 °C 52.5 °F /  11.4 °C 29.9in /  1013.8hPa North 2.9mph /  4.7km/h 4.6mph /  7.4km/h 45% 0in /  0.0mm CLR
10:34 75.6 °F /  24.2 °C 52.7 °F /  11.5 °C 29.9in /  1013.8hPa North 2.9mph /  4.7km/h 6.4mph /  10.3km/h 45% 0in /  0.0mm CLR
10:39 75.4 °F /  24.1 °C 53.2 °F /  11.8 °C 29.9in /  1013.8hPa NNE 3.6mph /  5.8km/h 7.6mph /  12.2km/h 46% 0in /  0.0mm CLR
10:44 75.4 °F /  24.1 °C 53.8 °F /  12.1 °C 29.9in /  1013.8hPa NNW 3.6mph /  5.8km/h 5.8mph /  9.3km/h 47% 0in /  0.0mm CLR
10:49 75.9 °F /  24.4 °C 53.6 °F /  12.0 °C 29.9in /  1013.7hPa NE 4.3mph /  6.9km/h 8.7mph /  14.0km/h 46% 0in /  0.0mm CLR
10:54 75.9 °F /  24.4 °C 53.6 °F /  12.0 °C 29.9in /  1013.7hPa NNE 4.3mph /  6.9km/h 6.9mph /  11.1km/h 46% 0in /  0.0mm CLR
10:59 76.3 °F /  24.6 °C 54 °F /  12.2 °C 29.9in /  1013.7hPa NNW 4.3mph /  6.9km/h 9.2mph /  14.8km/h 46% 0in /  0.0mm CLR
11:04 76.8 °F /  24.9 °C 54.5 °F /  12.5 °C 29.9in /  1013.7hPa ESE 4.3mph /  6.9km/h 6.9mph /  11.1km/h 46% 0in /  0.0mm CLR
11:09 77.4 °F /  25.2 °C 55 °F /  12.8 °C 29.9in /  1013.7hPa NE 4.3mph /  6.9km/h 4.6mph /  7.4km/h 46% 0in /  0.0mm CLR
11:14 77.5 °F /  25.3 °C 54.5 °F /  12.5 °C 29.9in /  1013.7hPa NE 4.3mph /  6.9km/h 5.8mph /  9.3km/h 45% 0in /  0.0mm CLR
11:19 77.7 °F /  25.4 °C 55.2 °F /  12.9 °C 29.9in /  1013.7hPa NNE 4mph /  6.4km/h 6.2mph /  10.0km/h 46% 0in /  0.0mm CLR
11:24 78.1 °F /  25.6 °C 55.6 °F /  13.1 °C 29.9in /  1013.7hPa NE 4mph /  6.4km/h 8.5mph /  13.7km/h 46% 0in /  0.0mm CLR
11:29 78.3 °F /  25.7 °C 56.5 °F /  13.6 °C 29.9in /  1013.7hPa ENE 5.4mph /  8.7km/h 8.1mph /  13.0km/h 47% 0in /  0.0mm CLR
11:34 78.4 °F /  25.8 °C 56.5 °F /  13.6 °C 29.9in /  1013.7hPa NNE 5.4mph /  8.7km/h 9.2mph /  14.8km/h 47% 0in /  0.0mm CLR
11:39 79.2 °F /  26.2 °C 57.2 °F /  14.0 °C 29.9in /  1013.7hPa NE 4.3mph /  6.9km/h 8.1mph /  13.0km/h 47% 0in /  0.0mm CLR
11:44 79.2 °F /  26.2 °C 57.2 °F /  14.0 °C 29.9in /  1013.7hPa ESE 4.3mph /  6.9km/h 8.1mph /  13.0km/h 47% 0in /  0.0mm CLR
11:49 79.3 °F /  26.3 °C 57.4 °F /  14.1 °C 29.9in /  1013.6hPa ESE 5.4mph /  8.7km/h 8.7mph /  14.0km/h 47% 0in /  0.0mm CLR
11:54 79.5 °F /  26.4 °C 57.6 °F /  14.2 °C 29.9in /  1013.6hPa NE 5.4mph /  8.7km/h 8.1mph /  13.0km/h 47% 0in /  0.0mm CLR
11:59 79.9 °F /  26.6 °C 57.7 °F /  14.3 °C 29.9in /  1013.6hPa NNW 5.4mph /  8.7km/h 7.4mph /  11.9km/h 47% 0in /  0.0mm CLR
12:04 80.4 °F /  26.9 °C 58.3 °F /  14.6 °C 29.9in /  1013.5hPa NE 5.4mph /  8.7km/h 10mph /  16.1km/h 47% 0in /  0.0mm CLR
12:09 80.6 °F /  27.0 °C 57.9 °F /  14.4 °C 29.9in /  1013.5hPa East 5.2mph /  8.4km/h 4.7mph /  7.6km/h 46% 0in /  0.0mm CLR
12:14 80.8 °F /  27.1 °C 58.6 °F /  14.8 °C 29.9in /  1013.5hPa North 5.2mph /  8.4km/h 9.2mph /  14.8km/h 47% 0in /  0.0mm CLR
12:19 81 °F /  27.2 °C 58.8 °F /  14.9 °C 29.9in /  1013.4hPa ENE 4.7mph /  7.6km/h 7.4mph /  11.9km/h 47% 0in /  0.0mm CLR
12:24 81.1 °F /  27.3 °C 59 °F /  15.0 °C 29.9in /  1013.4hPa NNE 4.7mph /  7.6km/h 4.6mph /  7.4km/h 47% 0in /  0.0mm CLR
12:29 81.3 °F /  27.4 °C 55.9 °F /  13.3 °C 29.9in /  1013.4hPa ESE 5.4mph /  8.7km/h 11.4mph /  18.3km/h 42% 0in /  0.0mm CLR
12:34 81.7 °F /  27.6 °C 55.8 °F /  13.2 °C 29.9in /  1013.5hPa SE 5.4mph /  8.7km/h 11.5mph /  18.5km/h 41% 0in /  0.0mm CLR
12:39 82.2 °F /  27.9 °C 56.1 °F /  13.4 °C 29.9in /  1013.5hPa East 6.9mph /  11.1km/h 9.7mph /  15.6km/h 41% 0in /  0.0mm CLR
12:44 82.2 °F /  27.9 °C 55.6 °F /  13.1 °C 29.9in /  1013.5hPa SE 6.9mph /  11.1km/h 10mph /  16.1km/h 40% 0in /  0.0mm CLR
12:49 82.6 °F /  28.1 °C 55 °F /  12.8 °C 29.9in /  1013.4hPa SSE 7.4mph /  11.9km/h 7.6mph /  12.2km/h 39% 0in /  0.0mm CLR
12:54 82.8 °F /  28.2 °C 54.7 °F /  12.6 °C 29.9in /  1013.4hPa SSE 7.4mph /  11.9km/h 12.7mph /  20.4km/h 38% 0in /  0.0mm CLR
12:59 82.6 °F /  28.1 °C 53.8 °F /  12.1 °C 29.9in /  1013.4hPa East 7.4mph /  11.9km/h 10.4mph /  16.7km/h 37% 0in /  0.0mm CLR
13:04 82.6 °F /  28.1 °C 55 °F /  12.8 °C 29.9in /  1013.2hPa SE 7.4mph /  11.9km/h 13.8mph /  22.2km/h 39% 0in /  0.0mm CLR
13:09 82.4 °F /  28.0 °C 54.1 °F /  12.3 °C 29.9in /  1013.2hPa SSW 7.6mph /  12.2km/h 10.4mph /  16.7km/h 38% 0in /  0.0mm CLR
13:14 82.4 °F /  28.0 °C 54.1 °F /  12.3 °C 29.9in /  1013.2hPa ENE 7.6mph /  12.2km/h 8.1mph /  13.0km/h 38% 0in /  0.0mm CLR
13:19 82.6 °F /  28.1 °C 52.2 °F /  11.2 °C 29.9in /  1013.3hPa SE 7.4mph /  11.9km/h 16.1mph /  25.9km/h 35% 0in /  0.0mm CLR
13:24 82.9 °F /  28.3 °C 53.2 °F /  11.8 °C 29.9in /  1013.3hPa ESE 7.4mph /  11.9km/h 7.4mph /  11.9km/h 36% 0in /  0.0mm CLR
13:29 82.9 °F /  28.3 °C 54.7 °F /  12.6 °C 29.9in /  1013.3hPa East 8.1mph /  13.0km/h 11.5mph /  18.5km/h 38% 0in /  0.0mm CLR
13:34 82.9 °F /  28.3 °C 54 °F /  12.2 °C 29.9in /  1013.3hPa SE 8.1mph /  13.0km/h 12.7mph /  20.4km/h 37% 0in /  0.0mm CLR
13:39 83.5 °F /  28.6 °C 55.2 °F /  12.9 °C 29.9in /  1013.3hPa SE 7.4mph /  11.9km/h 13.8mph /  22.2km/h 38% 0in /  0.0mm CLR
13:44 83.5 °F /  28.6 °C 54.5 °F /  12.5 °C 29.9in /  1013.3hPa ESE 7.4mph /  11.9km/h 16.1mph /  25.9km/h 37% 0in /  0.0mm CLR
13:49 83.7 °F /  28.7 °C 55.4 °F /  13.0 °C 29.9in /  1013.2hPa ESE 8.1mph /  13.0km/h 10.4mph /  16.7km/h 38% 0in /  0.0mm CLR
13:54 83.7 °F /  28.7 °C 54.7 °F /  12.6 °C 29.9in /  1013.2hPa SE 8.1mph /  13.0km/h 8.1mph /  13.0km/h 37% 0in /  0.0mm CLR
13:59 83.7 °F /  28.7 °C 56.1 °F /  13.4 °C 29.9in /  1013.2hPa ENE 7.4mph /  11.9km/h 14.7mph /  23.7km/h 39% 0in /  0.0mm CLR
14:04 84 °F /  28.9 °C 57 °F /  13.9 °C 29.9in /  1012.9hPa SE 7.4mph /  11.9km/h 13.8mph /  22.2km/h 40% 0in /  0.0mm CLR
14:09 84 °F /  28.9 °C 57 °F /  13.9 °C 29.9in /  1012.9hPa SE 8.7mph /  14.0km/h 10.4mph /  16.7km/h 40% 0in /  0.0mm CLR
14:14 84 °F /  28.9 °C 59.7 °F /  15.4 °C 29.9in /  1012.9hPa East 8.7mph /  14.0km/h 20.7mph /  33.3km/h 44% 0in /  0.0mm CLR
14:19 84.2 °F /  29.0 °C 59.4 °F /  15.2 °C 29.9in /  1012.6hPa ENE 8.7mph /  14.0km/h 12.7mph /  20.4km/h 43% 0in /  0.0mm CLR
14:24 83.8 °F /  28.8 °C 58.3 °F /  14.6 °C 29.9in /  1012.6hPa ESE 8.7mph /  14.0km/h 18.4mph /  29.6km/h 42% 0in /  0.0mm CLR
14:29 83.8 °F /  28.8 °C 58.3 °F /  14.6 °C 29.9in /  1012.6hPa East 9.2mph /  14.8km/h 16.1mph /  25.9km/h 42% 0in /  0.0mm CLR
14:34 84 °F /  28.9 °C 58.5 °F /  14.7 °C 29.9in /  1012.4hPa SE 9.2mph /  14.8km/h 16.1mph /  25.9km/h 42% 0in /  0.0mm CLR
14:39 84.6 °F /  29.2 °C 57.6 °F /  14.2 °C 29.9in /  1012.4hPa SE 9.7mph /  15.6km/h 13.8mph /  22.2km/h 40% 0in /  0.0mm CLR
14:44 84.6 °F /  29.2 °C 56.8 °F /  13.8 °C 29.9in /  1012.4hPa SE 9.7mph /  15.6km/h 16.1mph /  25.9km/h 39% 0in /  0.0mm CLR
14:49 84.4 °F /  29.1 °C 58.1 °F /  14.5 °C 29.9in /  1012.2hPa East 9.2mph /  14.8km/h 12.7mph /  20.4km/h 41% 0in /  0.0mm CLR
14:54 84.7 °F /  29.3 °C 59.2 °F /  15.1 °C 29.9in /  1012.2hPa ESE 9.2mph /  14.8km/h 11.5mph /  18.5km/h 42% 0in /  0.0mm CLR
14:59 84.9 °F /  29.4 °C 57.9 °F /  14.4 °C 29.9in /  1012.2hPa ESE 8.7mph /  14.0km/h 12.7mph /  20.4km/h 40% 0in /  0.0mm CLR
15:04 84.7 °F /  29.3 °C 59.2 °F /  15.1 °C 29.9in /  1012.0hPa SE 8.7mph /  14.0km/h 19.6mph /  31.5km/h 42% 0in /  0.0mm CLR
15:09 84.9 °F /  29.4 °C 59.4 °F /  15.2 °C 29.9in /  1012.0hPa SE 9.2mph /  14.8km/h 11.5mph /  18.5km/h 42% 0in /  0.0mm CLR
15:14 84.9 °F /  29.4 °C 60.6 °F /  15.9 °C 29.9in /  1012.0hPa SE 9.2mph /  14.8km/h 15mph /  24.1km/h 44% 0in /  0.0mm CLR
15:19 85.1 °F /  29.5 °C 60.1 °F /  15.6 °C 29.9in /  1012.0hPa ESE 11.2mph /  18.0km/h 13.8mph /  22.2km/h 43% 0in /  0.0mm CLR
15:24 85.6 °F /  29.8 °C 59.9 °F /  15.5 °C 29.9in /  1012.0hPa ESE 11.2mph /  18.0km/h 17.3mph /  27.8km/h 42% 0in /  0.0mm CLR
15:29 85.5 °F /  29.7 °C 59.2 °F /  15.1 °C 29.9in /  1012.0hPa SE 9.7mph /  15.6km/h 15mph /  24.1km/h 41% 0in /  0.0mm CLR
15:34 85.5 °F /  29.7 °C 59.2 °F /  15.1 °C 29.9in /  1011.8hPa ESE 9.7mph /  15.6km/h 15mph /  24.1km/h 41% 0in /  0.0mm CLR
15:39 85.6 °F /  29.8 °C 59.2 °F /  15.1 °C 29.9in /  1011.8hPa SE 9.7mph /  15.6km/h 15.6mph /  25.1km/h 41% 0in /  0.0mm CLR
15:44 85.5 °F /  29.7 °C 59.2 °F /  15.1 °C 29.9in /  1011.8hPa ESE 9.7mph /  15.6km/h 16.1mph /  25.9km/h 41% 0in /  0.0mm CLR
15:49 85.3 °F /  29.6 °C 58.3 °F /  14.6 °C 29.9in /  1011.7hPa ESE 10.7mph /  17.2km/h 15mph /  24.1km/h 40% 0in /  0.0mm CLR
15:54 85.3 °F /  29.6 °C 58.8 °F /  14.9 °C 29.9in /  1011.7hPa ESE 10.7mph /  17.2km/h 15mph /  24.1km/h 41% 0in /  0.0mm CLR
15:59 85.3 °F /  29.6 °C 59.5 °F /  15.3 °C 29.9in /  1011.7hPa ESE 11.8mph /  19.0km/h 16.1mph /  25.9km/h 42% 0in /  0.0mm CLR
16:04 85.5 °F /  29.7 °C 58.5 °F /  14.7 °C 29.9in /  1011.5hPa ESE 11.8mph /  19.0km/h 13.8mph /  22.2km/h 40% 0in /  0.0mm CLR
16:09 85.8 °F /  29.9 °C 58.6 °F /  14.8 °C 29.9in /  1011.5hPa East 10mph /  16.1km/h 20.7mph /  33.3km/h 40% 0in /  0.0mm CLR
16:14 86 °F /  30.0 °C 58.3 °F /  14.6 °C 29.9in /  1011.5hPa ENE 10mph /  16.1km/h 13.5mph /  21.7km/h 39% 0in /  0.0mm CLR
16:19 86.2 °F /  30.1 °C 56.8 °F /  13.8 °C 29.9in /  1011.4hPa ESE 10.7mph /  17.2km/h 15mph /  24.1km/h 37% 0in /  0.0mm CLR
16:24 86.4 °F /  30.2 °C 56.3 °F /  13.5 °C 29.9in /  1011.4hPa ESE 10.7mph /  17.2km/h 20.8mph /  33.5km/h 36% 0in /  0.0mm CLR
16:29 86.4 °F /  30.2 °C 54.7 °F /  12.6 °C 29.9in /  1011.4hPa SE 11.4mph /  18.3km/h 12.7mph /  20.4km/h 34% 0in /  0.0mm CLR
16:34 86.5 °F /  30.3 °C 54 °F /  12.2 °C 29.9in /  1011.2hPa SE 11.4mph /  18.3km/h 16.1mph /  25.9km/h 33% 0in /  0.0mm CLR
16:39 86.7 °F /  30.4 °C 53.2 °F /  11.8 °C 29.9in /  1011.2hPa East 9.7mph /  15.6km/h 10.4mph /  16.7km/h 32% 0in /  0.0mm CLR
16:44 87.1 °F /  30.6 °C 53.6 °F /  12.0 °C 29.9in /  1011.2hPa ESE 9.7mph /  15.6km/h 18.4mph /  29.6km/h 32% 0in /  0.0mm CLR
16:49 86.7 °F /  30.4 °C 53.2 °F /  11.8 °C 29.9in /  1011.1hPa ESE 10.7mph /  17.2km/h 18.4mph /  29.6km/h 32% 0in /  0.0mm CLR
16:54 86.4 °F /  30.2 °C 54.7 °F /  12.6 °C 29.9in /  1011.1hPa East 10.7mph /  17.2km/h 18.4mph /  29.6km/h 34% 0in /  0.0mm CLR
16:59 86.2 °F /  30.1 °C 55.2 °F /  12.9 °C 29.9in /  1011.1hPa ESE 11.2mph /  18.0km/h 15mph /  24.1km/h 35% 0in /  0.0mm CLR
17:04 86.4 °F /  30.2 °C 54.7 °F /  12.6 °C 29.9in /  1011.0hPa ESE 11.2mph /  18.0km/h 19.6mph /  31.5km/h 34% 0in /  0.0mm CLR
17:09 86.5 °F /  30.3 °C 55.6 °F /  13.1 °C 29.9in /  1011.0hPa East 11.4mph /  18.3km/h 13.5mph /  21.7km/h 35% 0in /  0.0mm CLR
17:14 86.7 °F /  30.4 °C 55.8 °F /  13.2 °C 29.9in /  1011.0hPa East 11.4mph /  18.3km/h 13.8mph /  22.2km/h 35% 0in /  0.0mm CLR
17:19 86.5 °F /  30.3 °C 55.6 °F /  13.1 °C 29.9in /  1011.1hPa SE 10.2mph /  16.4km/h 20.8mph /  33.5km/h 35% 0in /  0.0mm CLR
17:24 86.2 °F /  30.1 °C 55.2 °F /  12.9 °C 29.9in /  1011.1hPa SE 10.2mph /  16.4km/h 16.1mph /  25.9km/h 35% 0in /  0.0mm CLR
17:29 86.2 °F /  30.1 °C 54.5 °F /  12.5 °C 29.9in /  1011.1hPa ESE 11.2mph /  18.0km/h 11.5mph /  18.5km/h 34% 0in /  0.0mm CLR
17:34 86.4 °F /  30.2 °C 55.6 °F /  13.1 °C 29.9in /  1011.1hPa SSE 11.2mph /  18.0km/h 16.1mph /  25.9km/h 35% 0in /  0.0mm CLR
17:39 85.6 °F /  29.8 °C 54.9 °F /  12.7 °C 29.9in /  1011.1hPa SE 11.2mph /  18.0km/h 15mph /  24.1km/h 35% 0in /  0.0mm CLR
17:44 85.6 °F /  29.8 °C 54.9 °F /  12.7 °C 29.9in /  1011.1hPa SE 11.2mph /  18.0km/h 19.6mph /  31.5km/h 35% 0in /  0.0mm CLR
17:49 85.8 °F /  29.9 °C 55 °F /  12.8 °C 29.9in /  1011.0hPa ESE 12.3mph /  19.8km/h 15mph /  24.1km/h 35% 0in /  0.0mm CLR
17:54 85.6 °F /  29.8 °C 54.9 °F /  12.7 °C 29.9in /  1011.0hPa ESE 12.3mph /  19.8km/h 12.7mph /  20.4km/h 35% 0in /  0.0mm CLR
17:59 86.2 °F /  30.1 °C 54.5 °F /  12.5 °C 29.9in /  1011.0hPa SE 10.7mph /  17.2km/h 13.8mph /  22.2km/h 34% 0in /  0.0mm CLR
18:04 86.2 °F /  30.1 °C 52.9 °F /  11.6 °C 29.9in /  1010.9hPa SE 10.7mph /  17.2km/h 15.6mph /  25.1km/h 32% 0in /  0.0mm CLR
18:09 86.2 °F /  30.1 °C 53.8 °F /  12.1 °C 29.9in /  1010.9hPa ESE 9.7mph /  15.6km/h 16.1mph /  25.9km/h 33% 0in /  0.0mm CLR
18:14 86 °F /  30.0 °C 54.3 °F /  12.4 °C 29.9in /  1010.9hPa ESE 9.7mph /  15.6km/h 12.3mph /  19.8km/h 34% 0in /  0.0mm CLR
18:19 85.5 °F /  29.7 °C 55.6 °F /  13.1 °C 29.9in /  1010.8hPa ESE 10mph /  16.1km/h 16.1mph /  25.9km/h 36% 0in /  0.0mm CLR
18:24 85.5 °F /  29.7 °C 54.7 °F /  12.6 °C 29.9in /  1010.8hPa SSE 10mph /  16.1km/h 12.7mph /  20.4km/h 35% 0in /  0.0mm CLR
18:29 85.5 °F /  29.7 °C 55.6 °F /  13.1 °C 29.9in /  1010.8hPa ESE 8.5mph /  13.7km/h 17.3mph /  27.8km/h 36% 0in /  0.0mm CLR
18:34 84.9 °F /  29.4 °C 55.8 °F /  13.2 °C 29.9in /  1010.8hPa ESE 8.5mph /  13.7km/h 18.1mph /  29.1km/h 37% 0in /  0.0mm CLR
18:39 84.9 °F /  29.4 °C 55.8 °F /  13.2 °C 29.9in /  1010.8hPa ESE 11.4mph /  18.3km/h 13.8mph /  22.2km/h 37% 0in /  0.0mm CLR
18:44 84.9 °F /  29.4 °C 55.8 °F /  13.2 °C 29.9in /  1010.8hPa SE 11.4mph /  18.3km/h 13.8mph /  22.2km/h 37% 0in /  0.0mm CLR
18:49 84.6 °F /  29.2 °C 56.1 °F /  13.4 °C 29.8in /  1010.7hPa ESE 9.7mph /  15.6km/h 18.4mph /  29.6km/h 38% 0in /  0.0mm CLR
18:54 84.6 °F /  29.2 °C 56.1 °F /  13.4 °C 29.8in /  1010.7hPa SE 9.7mph /  15.6km/h 15mph /  24.1km/h 38% 0in /  0.0mm CLR
18:59 84.6 °F /  29.2 °C 56.1 °F /  13.4 °C 29.8in /  1010.7hPa SE 10mph /  16.1km/h 13.5mph /  21.7km/h 38% 0in /  0.0mm CLR
19:04 84.6 °F /  29.2 °C 55.4 °F /  13.0 °C 29.8in /  1010.7hPa SE 10mph /  16.1km/h 11.5mph /  18.5km/h 37% 0in /  0.0mm CLR
19:09 84.6 °F /  29.2 °C 55.4 °F /  13.0 °C 29.8in /  1010.7hPa ESE 9.2mph /  14.8km/h 17.3mph /  27.8km/h 37% 0in /  0.0mm CLR
19:14 84.2 °F /  29.0 °C 55 °F /  12.8 °C 29.8in /  1010.7hPa East 9.2mph /  14.8km/h 16.1mph /  25.9km/h 37% 0in /  0.0mm CLR
19:19 84.4 °F /  29.1 °C 54.5 °F /  12.5 °C 29.8in /  1010.6hPa SSE 10.2mph /  16.4km/h 8.1mph /  13.0km/h 36% 0in /  0.0mm CLR
19:24 84.6 °F /  29.2 °C 54 °F /  12.2 °C 29.8in /  1010.6hPa SE 10.2mph /  16.4km/h 8.1mph /  13.0km/h 35% 0in /  0.0mm CLR
19:29 84.6 °F /  29.2 °C 53.1 °F /  11.7 °C 29.8in /  1010.6hPa ESE 7.4mph /  11.9km/h 12.7mph /  20.4km/h 34% 0in /  0.0mm CLR
19:34 84.4 °F /  29.1 °C 52.9 °F /  11.6 °C 29.8in /  1010.7hPa ESE 7.4mph /  11.9km/h 9.2mph /  14.8km/h 34% 0in /  0.0mm CLR
19:39 84.2 °F /  29.0 °C 52.9 °F /  11.6 °C 29.8in /  1010.7hPa ESE 8.1mph /  13.0km/h 12.7mph /  20.4km/h 34% 0in /  0.0mm CLR
19:44 84.4 °F /  29.1 °C 52.9 °F /  11.6 °C 29.8in /  1010.7hPa SE 8.1mph /  13.0km/h 10.4mph /  16.7km/h 34% 0in /  0.0mm CLR
19:49 84 °F /  28.9 °C 52.5 °F /  11.4 °C 29.8in /  1010.7hPa ESE 7.6mph /  12.2km/h 11.5mph /  18.5km/h 34% 0in /  0.0mm CLR
19:54 83.8 °F /  28.8 °C 54.9 °F /  12.7 °C 29.8in /  1010.7hPa ESE 7.6mph /  12.2km/h 8.1mph /  13.0km/h 37% 0in /  0.0mm CLR
19:59 83.7 °F /  28.7 °C 56.1 °F /  13.4 °C 29.8in /  1010.7hPa NE 6.4mph /  10.3km/h 9.7mph /  15.6km/h 39% 0in /  0.0mm CLR
20:04 83.3 °F /  28.5 °C 53.6 °F /  12.0 °C 29.9in /  1010.8hPa East 6.4mph /  10.3km/h 6.4mph /  10.3km/h 36% 0in /  0.0mm CLR
20:09 83.1 °F /  28.4 °C 52.5 °F /  11.4 °C 29.9in /  1010.8hPa East 6.4mph /  10.3km/h 11.5mph /  18.5km/h 35% 0in /  0.0mm CLR
20:14 82.9 °F /  28.3 °C 53.2 °F /  11.8 °C 29.9in /  1010.8hPa NNE 6.4mph /  10.3km/h 15mph /  24.1km/h 36% 0in /  0.0mm CLR
20:19 82.4 °F /  28.0 °C 57 °F /  13.9 °C 29.9in /  1010.9hPa NNE 8.7mph /  14.0km/h 14mph /  22.5km/h 42% 0in /  0.0mm CLR
20:24 81.7 °F /  27.6 °C 57 °F /  13.9 °C 29.9in /  1010.9hPa NE 8.7mph /  14.0km/h 14.5mph /  23.3km/h 43% 0in /  0.0mm CLR
20:29 81.1 °F /  27.3 °C 57.7 °F /  14.3 °C 29.9in /  1010.9hPa NE 10mph /  16.1km/h 13.8mph /  22.2km/h 45% 0in /  0.0mm CLR
20:34 80.8 °F /  27.1 °C 58.1 °F /  14.5 °C 29.9in /  1011.1hPa ENE 10mph /  16.1km/h 12.7mph /  20.4km/h 46% 0in /  0.0mm CLR
20:39 80.2 °F /  26.8 °C 58.3 °F /  14.6 °C 29.9in /  1011.1hPa NE 10.2mph /  16.4km/h 16.1mph /  25.9km/h 47% 0in /  0.0mm CLR
20:44 79.9 °F /  26.6 °C 58.5 °F /  14.7 °C 29.9in /  1011.1hPa NE 10.2mph /  16.4km/h 14.7mph /  23.7km/h 48% 0in /  0.0mm CLR
20:49 79.5 °F /  26.4 °C 59.2 °F /  15.1 °C 29.9in /  1011.1hPa ENE 10.7mph /  17.2km/h 13.8mph /  22.2km/h 50% 0in /  0.0mm CLR
20:54 79.3 °F /  26.3 °C 59.5 °F /  15.3 °C 29.9in /  1011.1hPa NE 10.7mph /  17.2km/h 15mph /  24.1km/h 51% 0in /  0.0mm CLR
20:59 78.8 °F /  26.0 °C 59.7 °F /  15.4 °C 29.9in /  1011.1hPa NE 9.7mph /  15.6km/h 15mph /  24.1km/h 52% 0in /  0.0mm CLR
21:04 78.3 °F /  25.7 °C 60.3 °F /  15.7 °C 29.9in /  1011.2hPa NNE 9.7mph /  15.6km/h 16.1mph /  25.9km/h 54% 0in /  0.0mm CLR
21:09 77.9 °F /  25.5 °C 60.4 °F /  15.8 °C 29.9in /  1011.2hPa NE 10.2mph /  16.4km/h 12.3mph /  19.8km/h 55% 0in /  0.0mm CLR
21:14 77.4 °F /  25.2 °C 60.4 °F /  15.8 °C 29.9in /  1011.2hPa NE 10.2mph /  16.4km/h 15mph /  24.1km/h 56% 0in /  0.0mm CLR
21:19 77 °F /  25.0 °C 60.6 °F /  15.9 °C 29.9in /  1011.4hPa East 9.7mph /  15.6km/h 11.5mph /  18.5km/h 57% 0in /  0.0mm CLR
21:24 76.6 °F /  24.8 °C 60.3 °F /  15.7 °C 29.9in /  1011.4hPa NE 9.7mph /  15.6km/h 12.7mph /  20.4km/h 57% 0in /  0.0mm CLR
21:29 76.3 °F /  24.6 °C 61 °F /  16.1 °C 29.9in /  1011.4hPa ENE 8.1mph /  13.0km/h 8.1mph /  13.0km/h 59% 0in /  0.0mm CLR
21:34 76.3 °F /  24.6 °C 61 °F /  16.1 °C 29.9in /  1011.4hPa ESE 8.1mph /  13.0km/h 9.2mph /  14.8km/h 59% 0in /  0.0mm CLR
21:39 76.3 °F /  24.6 °C 61.3 °F /  16.3 °C 29.9in /  1011.4hPa NNE 5.9mph /  9.5km/h 6.9mph /  11.1km/h 60% 0in /  0.0mm CLR
21:44 75.9 °F /  24.4 °C 61.5 °F /  16.4 °C 29.9in /  1011.4hPa NE 5.9mph /  9.5km/h 9.2mph /  14.8km/h 61% 0in /  0.0mm CLR
21:49 75.7 °F /  24.3 °C 61.9 °F /  16.6 °C 29.9in /  1011.5hPa East 5.9mph /  9.5km/h 6.9mph /  11.1km/h 62% 0in /  0.0mm CLR
21:54 75.6 °F /  24.2 °C 61.5 °F /  16.4 °C 29.9in /  1011.5hPa ENE 5.9mph /  9.5km/h 9.2mph /  14.8km/h 62% 0in /  0.0mm CLR
21:59 75.4 °F /  24.1 °C 61.9 °F /  16.6 °C 29.9in /  1011.5hPa ESE 5.2mph /  8.4km/h 8.5mph /  13.7km/h 63% 0in /  0.0mm CLR
22:04 75.4 °F /  24.1 °C 62.4 °F /  16.9 °C 29.9in /  1011.7hPa NNE 5.2mph /  8.4km/h 9.2mph /  14.8km/h 64% 0in /  0.0mm CLR
22:09 75 °F /  23.9 °C 62.1 °F /  16.7 °C 29.9in /  1011.7hPa NE 5.9mph /  9.5km/h 11.5mph /  18.5km/h 64% 0in /  0.0mm CLR
22:14 74.8 °F /  23.8 °C 62.2 °F /  16.8 °C 29.9in /  1011.7hPa NE 5.9mph /  9.5km/h 8.7mph /  14.0km/h 65% 0in /  0.0mm CLR
22:19 74.7 °F /  23.7 °C 62.1 °F /  16.7 °C 29.9in /  1011.9hPa NE 6.2mph /  10.0km/h 8.1mph /  13.0km/h 65% 0in /  0.0mm CLR
22:24 74.5 °F /  23.6 °C 61.9 °F /  16.6 °C 29.9in /  1011.9hPa NE 6.2mph /  10.0km/h 9.2mph /  14.8km/h 65% 0in /  0.0mm CLR
22:29 74.3 °F /  23.5 °C 61.9 °F /  16.6 °C 29.9in /  1011.9hPa East 6.4mph /  10.3km/h 10.7mph /  17.2km/h 65% 0in /  0.0mm CLR
22:34 73.9 °F /  23.3 °C 62.8 °F /  17.1 °C 29.9in /  1012.1hPa NE 6.4mph /  10.3km/h 6.2mph /  10.0km/h 68% 0in /  0.0mm CLR
22:39 73.6 °F /  23.1 °C 62.8 °F /  17.1 °C 29.9in /  1012.1hPa NNE 5.4mph /  8.7km/h 8.1mph /  13.0km/h 69% 0in /  0.0mm CLR
22:44 73.2 °F /  22.9 °C 62.4 °F /  16.9 °C 29.9in /  1012.1hPa NE 5.4mph /  8.7km/h 6.9mph /  11.1km/h 69% 0in /  0.0mm CLR
22:49 72.9 °F /  22.7 °C 62.4 °F /  16.9 °C 29.9in /  1012.3hPa NNE 5.9mph /  9.5km/h 9.2mph /  14.8km/h 70% 0in /  0.0mm CLR
22:54 72.7 °F /  22.6 °C 62.2 °F /  16.8 °C 29.9in /  1012.3hPa NNE 5.9mph /  9.5km/h 9.2mph /  14.8km/h 70% 0in /  0.0mm CLR
22:59 72.9 °F /  22.7 °C 62.4 °F /  16.9 °C 29.9in /  1012.3hPa NE 5.4mph /  8.7km/h 5.8mph /  9.3km/h 70% 0in /  0.0mm CLR
23:04 72.7 °F /  22.6 °C 62.2 °F /  16.8 °C 29.9in /  1012.5hPa ENE 5.4mph /  8.7km/h 8.1mph /  13.0km/h 70% 0in /  0.0mm CLR
23:09 72.5 °F /  22.5 °C 62.6 °F /  17.0 °C 29.9in /  1012.5hPa ENE 5.9mph /  9.5km/h 8.1mph /  13.0km/h 71% 0in /  0.0mm CLR
23:14 72.3 °F /  22.4 °C 62.8 °F /  17.1 °C 29.9in /  1012.5hPa NNE 5.9mph /  9.5km/h 13.8mph /  22.2km/h 72% 0in /  0.0mm CLR
23:19 72 °F /  22.2 °C 62.4 °F /  16.9 °C 29.9in /  1012.6hPa ENE 6.2mph /  10.0km/h 8.1mph /  13.0km/h 72% 0in /  0.0mm CLR
23:24 71.8 °F /  22.1 °C 62.8 °F /  17.1 °C 29.9in /  1012.6hPa NE 6.2mph /  10.0km/h 6.9mph /  11.1km/h 73% 0in /  0.0mm CLR
23:29 71.4 °F /  21.9 °C 62.2 °F /  16.8 °C 29.9in /  1012.6hPa NNE 5.4mph /  8.7km/h 7.4mph /  11.9km/h 73% 0in /  0.0mm CLR
23:34 71.2 °F /  21.8 °C 62.4 °F /  16.9 °C 29.9in /  1012.8hPa NE 5.4mph /  8.7km/h 9.2mph /  14.8km/h 74% 0in /  0.0mm CLR
23:39 71.1 °F /  21.7 °C 62.8 °F /  17.1 °C 29.9in /  1012.8hPa NNE 6.2mph /  10.0km/h 10mph /  16.1km/h 75% 0in /  0.0mm CLR
23:44 70.9 °F /  21.6 °C 63 °F /  17.2 °C 29.9in /  1012.8hPa NE 6.2mph /  10.0km/h 6.9mph /  11.1km/h 76% 0in /  0.0mm CLR
23:49 70.9 °F /  21.6 °C 63.3 °F /  17.4 °C 29.9in /  1012.7hPa NE 5.4mph /  8.7km/h 8.1mph /  13.0km/h 77% 0in /  0.0mm CLR
23:54 70.7 °F /  21.5 °C 63.1 °F /  17.3 °C 29.9in /  1012.7hPa East 5.4mph /  8.7km/h 6.9mph /  11.1km/h 77% 0in /  0.0mm CLR
23:59 70.7 °F /  21.5 °C 63.1 °F /  17.3 °C 29.9in /  1012.7hPa NE 5.2mph /  8.4km/h 5.8mph /  9.3km/h 77% 0in /  0.0mm CLR
Murcia-Puente Tocinos, España
Compliments of Weather Underground - 2.75 mb

La estación de MeteoMurcia.com, publica sus datos en los siguientes proyectos:

Weather Underground PWS IMURCIAP2 Meteoclimatic www.awekas.at

W3Counter
Web Analytics